createdAt,value
2017-08-13T00:00:21.208Z,59.04
2017-08-13T00:02:52.999Z,59.05
2017-08-13T00:05:24.795Z,59.11
2017-08-13T00:07:56.337Z,59.09
2017-08-13T00:10:31.429Z,59.16
2017-08-13T00:13:03.278Z,59.18
2017-08-13T00:15:35.776Z,59.19
2017-08-13T00:18:08.284Z,59.18
2017-08-13T00:20:41.284Z,59.20
2017-08-13T00:23:12.936Z,59.25
2017-08-13T00:25:47.534Z,59.21
2017-08-13T00:28:22.123Z,59.30
2017-08-13T00:30:57.982Z,59.29
2017-08-13T00:33:37.445Z,59.27
2017-08-13T00:36:10.632Z,59.29
2017-08-13T00:38:45.169Z,59.28
2017-08-13T00:41:21.911Z,59.27
2017-08-13T00:44:06.677Z,59.32
2017-08-13T00:46:39.726Z,59.36
2017-08-13T00:49:12.966Z,59.31
2017-08-13T00:51:51.414Z,59.38
2017-08-13T00:54:24.806Z,59.33
2017-08-13T00:56:58.559Z,59.36
2017-08-13T00:59:35.273Z,59.46
2017-08-13T01:02:10.955Z,59.28
2017-08-13T01:04:50.439Z,59.43
2017-08-13T01:07:31.994Z,59.41
2017-08-13T01:10:08.348Z,59.45
2017-08-13T01:12:41.095Z,59.44
2017-08-13T01:15:13.095Z,59.49
2017-08-13T01:17:44.614Z,59.46
2017-08-13T01:20:22.281Z,59.53
2017-08-13T01:22:55.758Z,59.43
2017-08-13T01:25:35.147Z,59.51
2017-08-13T01:28:07.310Z,59.50
2017-08-13T01:30:41.622Z,59.48
2017-08-13T01:33:14.070Z,59.52
2017-08-13T01:35:50.021Z,59.46
2017-08-13T01:38:24.107Z,59.48
2017-08-13T01:40:57.688Z,59.53
2017-08-13T01:49:38.586Z,59.61
2017-08-13T01:55:06.722Z,59.58
2017-08-13T01:57:38.821Z,59.59
2017-08-13T02:00:10.694Z,59.63
2017-08-13T02:02:42.708Z,59.66
2017-08-13T02:05:14.549Z,59.71
2017-08-13T02:07:48.101Z,59.75
2017-08-13T02:10:23.631Z,59.77
2017-08-13T02:12:56.064Z,59.68
2017-08-13T02:15:36.027Z,59.72
2017-08-13T02:18:09.426Z,59.70
2017-08-13T02:20:41.115Z,59.70
2017-08-13T02:23:13.172Z,59.67
2017-08-13T02:25:45.219Z,59.76
2017-08-13T02:28:18.178Z,59.68
2017-08-13T02:30:50.006Z,59.71
2017-08-13T02:33:22.041Z,59.69
2017-08-13T02:35:54.066Z,59.66
2017-08-13T02:41:08.400Z,59.71
2017-08-13T02:43:40.242Z,59.75
2017-08-13T02:46:14.515Z,59.74
2017-08-13T02:48:46.086Z,59.84
2017-08-13T02:51:18.421Z,59.75
2017-08-13T02:53:50.621Z,59.80
2017-08-13T02:59:18.771Z,59.80
2017-08-13T03:01:56.179Z,59.77
2017-08-13T03:04:34.191Z,59.87
2017-08-13T03:07:05.869Z,59.92
2017-08-13T03:09:38.572Z,59.98
2017-08-13T03:12:11.700Z,60.04
2017-08-13T03:14:44.424Z,59.96
2017-08-13T03:17:16.393Z,59.98
2017-08-13T03:19:50.674Z,60.02
2017-08-13T03:22:22.439Z,59.96
2017-08-13T03:24:53.721Z,60.16
2017-08-13T03:27:30.705Z,60.22
2017-08-13T03:30:09.862Z,60.21
2017-08-13T03:32:43.260Z,60.25
2017-08-13T03:35:16.674Z,60.28
2017-08-13T03:37:51.811Z,60.23
2017-08-13T03:40:23.494Z,60.28
2017-08-13T03:42:55.935Z,60.34
2017-08-13T03:45:33.042Z,60.35
2017-08-13T03:48:05.934Z,60.14
2017-08-13T03:50:37.664Z,60.27
2017-08-13T03:53:11.978Z,60.27
2017-08-13T03:55:44.151Z,60.17
2017-08-13T03:58:15.897Z,60.20
2017-08-13T04:00:47.996Z,60.34
2017-08-13T04:03:19.585Z,60.27
2017-08-13T04:05:51.454Z,60.32
2017-08-13T04:08:24.023Z,60.37
2017-08-13T04:10:56.957Z,60.42
2017-08-13T04:13:32.126Z,60.48
2017-08-13T04:16:03.979Z,60.50
2017-08-13T04:18:39.790Z,60.48
2017-08-13T04:21:11.032Z,60.49
2017-08-13T04:23:44.842Z,60.48
2017-08-13T04:26:18.671Z,60.48
2017-08-13T04:28:53.139Z,60.38
2017-08-13T04:31:24.638Z,60.57
2017-08-13T04:34:03.037Z,60.58
2017-08-13T04:36:38.398Z,60.65
2017-08-13T04:39:12.938Z,60.48
2017-08-13T04:41:46.538Z,60.44
2017-08-13T04:44:22.853Z,60.52
2017-08-13T04:46:55.310Z,60.60
2017-08-13T04:49:33.868Z,60.52
2017-08-13T04:52:06.844Z,60.68
2017-08-13T04:54:43.012Z,60.76
2017-08-13T04:57:14.639Z,60.73
2017-08-13T04:59:46.349Z,60.79
2017-08-13T05:02:18.607Z,60.93
2017-08-13T05:04:50.774Z,61.04
2017-08-13T05:07:22.504Z,61.13
2017-08-13T05:09:57.124Z,61.08
2017-08-13T05:12:32.212Z,60.98
2017-08-13T05:15:04.837Z,61.15
2017-08-13T05:17:37.233Z,61.04
2017-08-13T05:20:09.244Z,60.94
2017-08-13T05:22:41.489Z,60.77
2017-08-13T05:25:13.929Z,60.79
2017-08-13T05:27:53.082Z,60.82
2017-08-13T05:30:29.878Z,60.91
2017-08-13T05:33:02.274Z,60.93
2017-08-13T05:35:36.177Z,60.87
2017-08-13T05:38:09.092Z,60.95
2017-08-13T05:40:41.652Z,60.93
2017-08-13T05:43:13.920Z,60.98
2017-08-13T05:45:46.478Z,60.99
2017-08-13T05:48:17.983Z,61.02
2017-08-13T05:50:50.163Z,61.03
2017-08-13T05:53:24.685Z,61.03
2017-08-13T05:55:56.655Z,61.01
2017-08-13T05:58:31.055Z,61.02
2017-08-13T06:01:03.513Z,61.00
2017-08-13T06:03:36.541Z,61.07
2017-08-13T06:06:09.104Z,61.12
2017-08-13T06:08:41.686Z,61.14
2017-08-13T06:11:13.674Z,61.22
2017-08-13T06:13:45.362Z,61.15
2017-08-13T06:16:17.025Z,61.37
2017-08-13T06:18:48.337Z,61.21
2017-08-13T06:21:20.087Z,61.24
2017-08-13T06:23:52.570Z,61.49
2017-08-13T06:26:24.517Z,61.76
2017-08-13T06:28:56.183Z,61.59
2017-08-13T06:31:31.329Z,62.17
2017-08-13T06:34:03.955Z,62.51
2017-08-13T06:36:36.624Z,62.69
2017-08-13T06:39:09.755Z,62.72
2017-08-13T06:41:41.963Z,63.14
2017-08-13T06:44:14.243Z,63.20
2017-08-13T06:46:46.407Z,62.80
2017-08-13T06:49:18.863Z,63.28
2017-08-13T06:51:51.489Z,63.43
2017-08-13T06:54:23.555Z,63.26
2017-08-13T06:57:04.115Z,63.20
2017-08-13T06:59:36.849Z,63.04
2017-08-13T07:02:11.024Z,62.93
2017-08-13T07:04:43.827Z,62.86
2017-08-13T07:07:16.693Z,62.78
2017-08-13T07:09:51.201Z,62.78
2017-08-13T07:12:22.792Z,62.84
2017-08-13T07:14:55.677Z,62.70
2017-08-13T07:17:32.531Z,63.39
2017-08-13T07:20:09.194Z,63.12
2017-08-13T07:22:40.861Z,63.14
2017-08-13T07:25:12.454Z,63.12
2017-08-13T07:27:44.484Z,63.07
2017-08-13T07:30:18.157Z,63.04
2017-08-13T07:32:50.604Z,63.13
2017-08-13T07:35:22.709Z,63.14
2017-08-13T07:37:54.785Z,63.07
2017-08-13T07:40:29.153Z,63.08
2017-08-13T07:43:01.158Z,63.24
2017-08-13T07:45:38.286Z,63.16
2017-08-13T07:48:10.546Z,63.24
2017-08-13T07:50:42.696Z,63.30
2017-08-13T07:53:14.724Z,63.20
2017-08-13T07:55:47.474Z,63.21
2017-08-13T07:58:19.996Z,62.96
2017-08-13T08:00:52.245Z,62.79
2017-08-13T08:03:24.132Z,62.67
2017-08-13T08:05:56.049Z,62.63
2017-08-13T08:08:29.655Z,62.53
2017-08-13T08:11:01.297Z,62.68
2017-08-13T08:13:33.746Z,62.72
2017-08-13T08:16:07.020Z,62.64
2017-08-13T08:18:39.410Z,62.74
2017-08-13T08:21:11.339Z,62.96
2017-08-13T08:23:43.100Z,63.07
2017-08-13T08:26:39.952Z,62.94
2017-08-13T08:29:13.006Z,62.71
2017-08-13T08:31:46.004Z,62.87
2017-08-13T08:34:18.565Z,62.94
2017-08-13T08:36:51.941Z,62.99
2017-08-13T08:39:23.752Z,63.05
2017-08-13T08:41:57.271Z,63.13
2017-08-13T08:44:31.373Z,62.99
2017-08-13T08:47:03.618Z,62.98
2017-08-13T08:49:36.044Z,63.25
2017-08-13T08:52:08.844Z,63.37
2017-08-13T08:54:41.829Z,63.43
2017-08-13T08:57:14.331Z,63.33
2017-08-13T08:59:46.706Z,63.23
2017-08-13T09:02:20.882Z,62.95
2017-08-13T09:04:54.505Z,63.05
2017-08-13T09:07:28.620Z,63.00
2017-08-13T09:10:00.732Z,63.09
2017-08-13T09:12:34.399Z,63.00
2017-08-13T09:15:06.173Z,63.04
2017-08-13T09:17:38.045Z,63.00
2017-08-13T09:20:09.886Z,63.04
2017-08-13T09:22:47.169Z,62.96
2017-08-13T09:25:21.308Z,63.02
2017-08-13T09:27:53.117Z,63.05
2017-08-13T09:30:25.344Z,63.07
2017-08-13T09:32:59.912Z,63.20
2017-08-13T09:35:33.825Z,63.19
2017-08-13T09:38:06.073Z,63.28
2017-08-13T09:40:37.837Z,63.26
2017-08-13T09:43:10.022Z,63.15
2017-08-13T09:45:42.624Z,63.05
2017-08-13T09:48:16.730Z,62.88
2017-08-13T09:50:50.451Z,62.78
2017-08-13T09:53:29.980Z,62.69
2017-08-13T09:56:03.701Z,62.54
2017-08-13T09:58:35.579Z,62.48
2017-08-13T10:01:07.608Z,62.37
2017-08-13T10:03:40.004Z,62.28
2017-08-13T10:06:11.906Z,62.13
2017-08-13T10:08:45.193Z,62.09
2017-08-13T10:11:16.771Z,61.97
2017-08-13T10:13:48.540Z,61.83
2017-08-13T10:16:20.265Z,61.75
2017-08-13T10:18:53.918Z,61.79
2017-08-13T10:21:25.475Z,61.79
2017-08-13T10:23:58.972Z,61.79
2017-08-13T10:26:32.779Z,61.80
2017-08-13T10:29:04.482Z,61.80
2017-08-13T10:31:36.200Z,61.81
2017-08-13T10:34:08.133Z,61.78
2017-08-13T10:36:39.743Z,61.79
2017-08-13T10:39:11.046Z,61.74
2017-08-13T10:41:42.652Z,61.76
2017-08-13T10:44:14.384Z,61.78
2017-08-13T10:46:46.079Z,61.77
2017-08-13T10:49:17.959Z,61.77
2017-08-13T10:51:50.503Z,61.78
2017-08-13T10:54:21.852Z,61.76
2017-08-13T10:56:53.403Z,61.79
2017-08-13T10:59:28.852Z,61.78
2017-08-13T11:02:00.844Z,61.70
2017-08-13T11:04:34.689Z,61.65
2017-08-13T11:07:08.405Z,61.70
2017-08-13T11:09:39.881Z,61.62
2017-08-13T11:12:11.198Z,61.56
2017-08-13T11:14:43.099Z,61.57
2017-08-13T11:17:14.479Z,61.55
2017-08-13T11:19:46.127Z,61.50
2017-08-13T11:22:17.869Z,61.55
2017-08-13T11:24:49.176Z,61.55
2017-08-13T11:27:20.740Z,61.61
2017-08-13T11:29:52.071Z,61.58
2017-08-13T11:32:23.802Z,61.54
2017-08-13T11:34:55.818Z,61.52
2017-08-13T11:37:29.605Z,61.39
2017-08-13T11:40:02.709Z,61.40
2017-08-13T11:42:36.723Z,61.37
2017-08-13T11:45:08.447Z,61.38
2017-08-13T11:47:51.517Z,61.19
2017-08-13T11:50:25.777Z,61.08
2017-08-13T11:52:58.711Z,60.96
2017-08-13T11:55:33.375Z,60.97
2017-08-13T11:58:06.336Z,61.01
2017-08-13T12:00:39.519Z,60.94
2017-08-13T12:03:12.583Z,60.94
2017-08-13T12:05:45.359Z,60.88
2017-08-13T12:08:17.444Z,60.81
2017-08-13T12:10:51.505Z,60.76
2017-08-13T12:13:23.755Z,60.69
2017-08-13T12:15:56.632Z,60.67
2017-08-13T12:18:28.324Z,60.67
2017-08-13T12:21:00.200Z,60.63
2017-08-13T12:23:34.372Z,60.52
2017-08-13T12:26:08.280Z,60.40
2017-08-13T12:28:40.293Z,60.27
2017-08-13T12:31:12.531Z,60.23
2017-08-13T12:33:43.981Z,60.06
2017-08-13T12:36:16.048Z,59.95
2017-08-13T12:38:47.546Z,59.68
2017-08-13T12:41:20.400Z,59.58
2017-08-13T12:43:53.791Z,59.41
2017-08-13T12:46:25.296Z,59.32
2017-08-13T12:48:57.357Z,59.20
2017-08-13T12:51:30.388Z,58.99
2017-08-13T12:54:02.131Z,58.89
2017-08-13T12:56:34.942Z,58.79
2017-08-13T12:59:07.533Z,58.62
2017-08-13T13:01:38.928Z,58.60
2017-08-13T13:04:10.464Z,58.58
2017-08-13T13:06:42.860Z,58.66
2017-08-13T13:09:16.348Z,58.65
2017-08-13T13:11:48.488Z,58.51
2017-08-13T13:14:19.888Z,58.69
2017-08-13T13:16:51.539Z,58.74
2017-08-13T13:19:33.620Z,58.80
2017-08-13T13:22:05.209Z,58.50
2017-08-13T13:24:38.513Z,58.49
2017-08-13T13:27:10.916Z,58.37
2017-08-13T13:29:42.727Z,58.30
2017-08-13T13:32:14.715Z,58.21
2017-08-13T13:34:49.171Z,58.35
2017-08-13T13:37:23.464Z,58.35
2017-08-13T13:39:58.495Z,58.21
2017-08-13T13:42:34.044Z,58.16
2017-08-13T13:45:10.170Z,58.18
2017-08-13T13:47:43.679Z,58.20
2017-08-13T13:50:22.297Z,58.23
2017-08-13T13:52:54.325Z,58.13
2017-08-13T13:55:29.490Z,58.05
2017-08-13T13:58:04.497Z,58.16
2017-08-13T14:00:37.516Z,58.33
2017-08-13T14:03:09.074Z,58.43
2017-08-13T14:05:40.867Z,58.38
2017-08-13T14:08:12.572Z,58.26
2017-08-13T14:10:44.098Z,58.16
2017-08-13T14:13:16.345Z,58.15
2017-08-13T14:15:48.515Z,58.15
2017-08-13T14:28:10.371Z,57.82
2017-08-13T14:30:49.631Z,57.63
2017-08-13T14:33:22.470Z,57.56
2017-08-13T14:35:54.739Z,57.30
2017-08-13T14:38:28.661Z,57.13
2017-08-13T14:41:00.455Z,56.90
2017-08-13T14:43:32.959Z,56.95
2017-08-13T14:46:04.363Z,56.64
2017-08-13T14:48:36.317Z,56.57
2017-08-13T14:51:08.878Z,56.65
2017-08-13T14:53:41.401Z,56.62
2017-08-13T14:56:13.365Z,56.40
2017-08-13T14:58:45.251Z,56.19
2017-08-13T15:01:17.071Z,55.74
2017-08-13T15:03:49.212Z,55.84
2017-08-13T15:06:20.903Z,55.92
2017-08-13T15:08:52.854Z,55.66
2017-08-13T15:11:24.999Z,55.68
2017-08-13T15:13:56.378Z,55.31
2017-08-13T15:16:31.462Z,55.31
2017-08-13T15:19:03.409Z,55.14
2017-08-13T15:21:35.525Z,55.01
2017-08-13T15:24:07.088Z,54.94
2017-08-13T15:26:39.029Z,54.67
2017-08-13T15:29:11.258Z,54.79
2017-08-13T15:31:42.830Z,54.61
2017-08-13T15:34:15.808Z,54.67
2017-08-13T15:36:47.894Z,54.52
2017-08-13T15:39:20.786Z,54.40
2017-08-13T15:41:52.476Z,54.55
2017-08-13T15:44:24.573Z,54.31
2017-08-13T15:46:56.103Z,54.19
2017-08-13T15:49:32.126Z,54.06
2017-08-13T15:52:03.597Z,53.95
2017-08-13T15:54:35.331Z,53.95
2017-08-13T15:57:07.162Z,53.96
2017-08-13T15:59:38.583Z,53.95
2017-08-13T16:02:10.292Z,53.64
2017-08-13T16:04:41.914Z,53.64
2017-08-13T16:10:53.499Z,53.77
2017-08-13T16:20:38.535Z,53.69
2017-08-13T16:23:10.334Z,53.73
2017-08-13T16:25:42.544Z,53.82
2017-08-13T16:28:14.241Z,53.63
2017-08-13T16:30:45.572Z,53.52
2017-08-13T16:33:17.049Z,53.39
2017-08-13T16:35:48.351Z,53.54
2017-08-13T16:38:19.803Z,53.46
2017-08-13T16:40:51.688Z,53.51
2017-08-13T16:43:23.574Z,53.71
2017-08-13T16:45:55.103Z,53.95
2017-08-13T16:48:26.755Z,54.03
2017-08-13T16:50:58.309Z,53.99
2017-08-13T16:53:32.979Z,53.96
2017-08-13T16:56:04.379Z,53.99
2017-08-13T17:02:21.681Z,54.01
2017-08-13T17:04:53.494Z,53.93
2017-08-13T17:07:27.657Z,53.91
2017-08-13T17:10:00.189Z,53.95
2017-08-13T17:12:34.972Z,53.93
2017-08-13T17:15:07.670Z,54.03
2017-08-13T17:17:39.804Z,53.85
2017-08-13T17:20:11.232Z,54.10
2017-08-13T17:24:11.171Z,54.02
2017-08-13T17:27:03.403Z,53.97
2017-08-13T17:33:42.082Z,53.93
2017-08-13T17:39:30.267Z,53.86
2017-08-13T17:42:03.093Z,54.02
2017-08-13T17:47:28.355Z,53.97
2017-08-13T17:50:00.309Z,53.93
2017-08-13T17:52:35.923Z,53.87
2017-08-13T18:01:29.632Z,53.93
2017-08-13T18:06:53.428Z,53.84
2017-08-13T18:09:25.350Z,53.92
2017-08-13T18:11:59.111Z,53.65
2017-08-13T18:14:32.779Z,54.04
2017-08-13T18:17:04.471Z,54.21
2017-08-13T18:19:36.916Z,54.23
2017-08-13T18:22:09.065Z,54.40
2017-08-13T18:24:41.664Z,54.78
2017-08-13T18:27:13.458Z,54.94
2017-08-13T18:29:45.227Z,55.14
2017-08-13T18:32:19.972Z,55.28
2017-08-13T18:35:13.370Z,55.49
2017-08-13T18:37:47.573Z,55.71
2017-08-13T18:40:20.629Z,55.70
2017-08-13T18:42:52.110Z,55.69
2017-08-13T18:45:24.292Z,55.63
2017-08-13T18:47:57.458Z,55.71
2017-08-13T18:50:31.250Z,55.69
2017-08-13T18:53:04.751Z,55.78
2017-08-13T18:55:36.355Z,55.91
2017-08-13T18:58:08.341Z,55.91
2017-08-13T19:00:40.290Z,55.99
2017-08-13T19:03:12.470Z,55.98
2017-08-13T19:05:45.666Z,56.06
2017-08-13T19:08:17.469Z,56.10
2017-08-13T19:10:49.366Z,56.11
2017-08-13T19:13:20.819Z,56.13
2017-08-13T19:23:42.054Z,56.01
2017-08-13T19:26:27.767Z,56.01
2017-08-13T19:29:00.182Z,56.01
2017-08-13T19:31:37.017Z,55.97
2017-08-13T19:34:08.643Z,56.01
2017-08-13T19:36:41.614Z,56.00
2017-08-13T19:39:14.712Z,55.94
2017-08-13T19:41:46.812Z,55.90
2017-08-13T19:44:18.504Z,55.83
2017-08-13T19:46:50.024Z,55.70
2017-08-13T19:49:21.688Z,55.71
2017-08-13T19:51:53.845Z,55.62
2017-08-13T19:54:30.176Z,55.60
2017-08-13T19:57:04.895Z,55.54
2017-08-13T19:59:37.782Z,55.50
2017-08-13T20:02:11.155Z,55.57
2017-08-13T20:04:58.488Z,55.58
2017-08-13T20:07:35.026Z,55.58
2017-08-13T20:10:09.295Z,55.57
2017-08-13T20:12:40.861Z,55.60
2017-08-13T20:15:13.238Z,55.54
2017-08-13T20:17:44.705Z,55.54
2017-08-13T20:20:17.526Z,55.63
2017-08-13T20:22:50.212Z,55.60
2017-08-13T20:25:22.441Z,55.63
2017-08-13T20:27:55.242Z,55.64
2017-08-13T20:30:29.300Z,55.50
2017-08-13T20:33:02.555Z,55.58
2017-08-13T20:35:34.985Z,55.63
2017-08-13T20:38:06.543Z,55.59
2017-08-13T20:40:39.240Z,55.70
2017-08-13T20:43:11.146Z,55.75
2017-08-13T20:45:42.664Z,55.68
2017-08-13T20:48:14.281Z,55.74
2017-08-13T20:50:46.598Z,55.85
2017-08-13T20:53:18.069Z,55.88
2017-08-13T20:55:49.426Z,55.93
2017-08-13T20:58:21.766Z,55.89
2017-08-13T21:00:53.199Z,55.90
2017-08-13T21:03:25.421Z,55.84
2017-08-13T21:05:58.716Z,55.81
2017-08-13T21:08:33.548Z,55.92
2017-08-13T21:11:07.278Z,55.87
2017-08-13T21:22:33.552Z,55.97
2017-08-13T21:25:13.324Z,56.19
2017-08-13T21:27:46.372Z,56.25
2017-08-13T21:30:18.539Z,56.19
2017-08-13T21:32:51.192Z,56.23
2017-08-13T21:35:22.897Z,56.18
2017-08-13T21:37:55.047Z,56.25
2017-08-13T21:40:29.155Z,56.32
2017-08-13T21:43:03.685Z,56.30
2017-08-13T21:45:35.983Z,56.29
2017-08-13T21:48:08.127Z,56.27
2017-08-13T21:50:40.093Z,56.32
2017-08-13T21:53:12.477Z,56.38
2017-08-13T21:55:45.619Z,56.40
2017-08-13T21:58:18.852Z,56.41
2017-08-13T22:00:51.472Z,56.34
2017-08-13T22:03:31.397Z,56.35
2017-08-13T22:06:04.367Z,56.36
2017-08-13T22:08:37.638Z,56.45
2017-08-13T22:11:10.505Z,56.38
2017-08-13T22:13:42.021Z,56.44
2017-08-13T22:16:14.460Z,56.50
2017-08-13T22:18:46.717Z,56.59
2017-08-13T22:21:18.666Z,56.54
2017-08-13T22:23:50.125Z,56.62
2017-08-13T22:26:21.856Z,56.57
2017-08-13T22:28:54.567Z,56.51
2017-08-13T22:31:30.666Z,56.46
2017-08-13T22:34:02.393Z,56.55
2017-08-13T22:36:34.976Z,56.53
2017-08-13T22:39:06.793Z,56.65
2017-08-13T22:41:39.838Z,56.58
2017-08-13T22:44:13.158Z,56.63
2017-08-13T22:46:44.715Z,56.62
